CheckWX is a tool to help pilots better visualize weather data.  It is not intended as a substitute for an official pre-flight weather briefing.

08:12:31 UTC

KRDK METAR
Red Oak Municipal Airport
Red Oak, Iowa, USA
Current

18 mins ago

KRDK 220755Z AUTO 04006KT 10SM OVC110 M04/M08 A3031 RMK AO2
Observed
Feb-22 @ 07:55 UTC
Wind
  • 040° at 6 KTS
Visibility
10 SM
Flight Rules
VFR
Cloud Levels
  • Overcast at 11,000' AGL
Temperature
-4°C / 25°F
Dewpoint
-8°C / 18°F
Humidity
74%
Altimeter
30.31" Hg
Pressure
1026.42 hPa
Previous

38 mins ago

KRDK 220735Z AUTO 06009KT 10SM OVC110 M04/M07 A3030 RMK AO2
Observed
Feb-22 @ 07:35 UTC
Wind
  • 060° at 9 KTS
Visibility
10 SM
Flight Rules
VFR
Cloud Levels
  • Overcast at 11,000' AGL
Temperature
-4°C / 25°F
Dewpoint
-7°C / 19°F
Humidity
80%
Altimeter
30.3" Hg
Pressure
1026.12 hPa
Previous

58 mins ago

KRDK 220715Z AUTO 05006KT 10SM OVC110 M03/M07 A3030 RMK AO2
Observed
Feb-22 @ 07:15 UTC
Wind
  • 050° at 6 KTS
Visibility
10 SM
Flight Rules
VFR
Cloud Levels
  • Overcast at 11,000' AGL
Temperature
-3°C / 27°F
Dewpoint
-7°C / 19°F
Humidity
74%
Altimeter
30.3" Hg
Pressure
1026.12 hPa